createdAt,value
2022-09-01T00:00:49.401Z,20.90
2022-09-01T00:03:53.156Z,20.80
2022-09-01T00:06:55.851Z,20.90
2022-09-01T00:09:58.885Z,20.80
2022-09-01T00:13:01.008Z,20.80
2022-09-01T00:16:04.414Z,20.80
2022-09-01T00:19:07.187Z,20.80
2022-09-01T00:22:09.622Z,20.80
2022-09-01T00:25:11.801Z,20.80
2022-09-01T00:28:13.885Z,20.80
2022-09-01T00:31:16.465Z,20.70
2022-09-01T00:34:20.167Z,20.80
2022-09-01T00:37:22.257Z,20.60
2022-09-01T00:40:24.469Z,20.70
2022-09-01T00:43:41.425Z,20.60
2022-09-01T00:46:55.075Z,20.60
2022-09-01T00:49:58.484Z,20.70
2022-09-01T00:53:01.090Z,20.70
2022-09-01T00:56:05.259Z,20.70
2022-09-01T00:59:09.941Z,20.70
2022-09-01T01:02:12.026Z,20.60
2022-09-01T01:05:15.352Z,20.60
2022-09-01T01:08:20.000Z,20.60
2022-09-01T01:11:22.095Z,20.60
2022-09-01T01:14:24.211Z,20.60
2022-09-01T01:17:26.239Z,20.50
2022-09-01T01:20:52.569Z,20.50
2022-09-01T01:24:29.272Z,20.50
2022-09-01T01:27:33.768Z,20.50
2022-09-01T01:30:52.565Z,20.50
2022-09-01T01:33:57.068Z,20.30
2022-09-01T01:37:00.028Z,20.40
2022-09-01T01:40:03.042Z,20.50
2022-09-01T01:43:05.641Z,20.40
2022-09-01T01:46:11.033Z,20.40
2022-09-01T01:49:20.140Z,20.40
2022-09-01T01:52:26.141Z,20.50
2022-09-01T01:55:30.919Z,20.50
2022-09-01T01:58:35.062Z,20.50
2022-09-01T02:01:38.443Z,20.60
2022-09-01T02:04:43.612Z,20.70
2022-09-01T02:07:50.383Z,20.60
2022-09-01T02:10:55.125Z,20.60
2022-09-01T02:13:57.677Z,20.60
2022-09-01T02:17:02.119Z,20.60
2022-09-01T02:20:04.502Z,20.60
2022-09-01T02:23:11.677Z,20.60
2022-09-01T02:26:17.047Z,20.60
2022-09-01T02:29:22.991Z,20.70
2022-09-01T02:32:25.066Z,20.60
2022-09-01T02:35:36.967Z,20.60
2022-09-01T02:38:43.082Z,20.50
2022-09-01T02:41:48.315Z,20.50
2022-09-01T02:44:50.392Z,20.60
2022-09-01T02:47:54.169Z,20.50
2022-09-01T02:50:57.457Z,20.50
2022-09-01T02:53:59.574Z,20.50
2022-09-01T02:57:01.925Z,20.50
2022-09-01T03:00:20.874Z,20.50
2022-09-01T03:03:24.830Z,20.50
2022-09-01T03:06:28.293Z,20.40
2022-09-01T03:09:32.792Z,20.50
2022-09-01T03:12:34.839Z,20.30
2022-09-01T03:15:37.811Z,20.30
2022-09-01T03:18:40.357Z,20.20
2022-09-01T03:21:44.423Z,20.20
2022-09-01T03:24:46.472Z,20.20
2022-09-01T03:27:48.691Z,20.20
2022-09-01T03:30:52.899Z,20.20
2022-09-01T03:33:58.153Z,20.20
2022-09-01T03:37:01.972Z,20.10
2022-09-01T03:40:09.173Z,20.20
2022-09-01T03:43:13.036Z,20.10
2022-09-01T03:46:21.949Z,20.20
2022-09-01T03:49:27.950Z,20.10
2022-09-01T03:52:30.257Z,20.00
2022-09-01T03:55:34.488Z,20.00
2022-09-01T03:58:36.629Z,20.00
2022-09-01T04:01:41.667Z,20.00
2022-09-01T04:04:44.721Z,19.90
2022-09-01T04:07:48.773Z,19.90
2022-09-01T04:10:54.629Z,19.90
2022-09-01T04:13:56.823Z,19.90
2022-09-01T04:17:17.197Z,19.90
2022-09-01T04:20:20.957Z,19.90
2022-09-01T04:23:32.202Z,19.90
2022-09-01T04:26:34.292Z,19.90
2022-09-01T04:29:38.499Z,19.80
2022-09-01T04:32:40.685Z,19.80
2022-09-01T04:35:43.782Z,19.70
2022-09-01T04:38:47.298Z,19.60
2022-09-01T04:41:50.808Z,19.60
2022-09-01T04:44:54.687Z,19.60
2022-09-01T04:47:56.759Z,19.60
2022-09-01T04:50:59.027Z,19.70
2022-09-01T04:54:03.077Z,19.70
2022-09-01T04:57:09.287Z,19.70
2022-09-01T05:00:22.558Z,19.60
2022-09-01T05:03:24.933Z,19.70
2022-09-01T05:06:28.257Z,19.70
2022-09-01T05:09:38.213Z,19.70
2022-09-01T05:12:41.393Z,19.70
2022-09-01T05:15:47.886Z,19.80
2022-09-01T05:18:50.467Z,19.80
2022-09-01T05:21:54.835Z,19.80
2022-09-01T05:25:03.136Z,19.80
2022-09-01T05:28:05.393Z,19.80
2022-09-01T05:31:07.896Z,19.80
2022-09-01T05:34:13.995Z,19.80
2022-09-01T05:37:16.308Z,19.90
2022-09-01T05:40:19.042Z,19.80
2022-09-01T05:43:21.757Z,19.80
2022-09-01T05:46:28.477Z,19.80
2022-09-01T05:49:33.317Z,19.80
2022-09-01T05:52:37.810Z,19.80
2022-09-01T05:55:40.535Z,19.60
2022-09-01T06:02:09.471Z,19.70
2022-09-01T06:05:13.887Z,19.70
2022-09-01T06:08:18.120Z,19.60
2022-09-01T06:11:22.351Z,19.60
2022-09-01T06:14:24.852Z,19.70
2022-09-01T06:17:30.910Z,19.70
2022-09-01T06:20:40.539Z,19.60
2022-09-01T06:23:43.308Z,19.80
2022-09-01T06:26:46.477Z,19.90
2022-09-01T06:29:55.466Z,20.10
2022-09-01T06:32:57.685Z,20.20
2022-09-01T06:36:04.140Z,20.30
2022-09-01T06:39:07.183Z,20.40
2022-09-01T06:42:11.424Z,20.80
2022-09-01T06:45:17.847Z,21.60
2022-09-01T06:48:20.181Z,22.40
2022-09-01T06:51:23.411Z,23.10
2022-09-01T06:54:25.934Z,23.50
2022-09-01T07:00:52.464Z,24.60
2022-09-01T07:03:58.803Z,25.60
2022-09-01T07:07:54.059Z,26.30
2022-09-01T07:10:28.124Z,26.60
2022-09-01T07:13:30.918Z,26.80
2022-09-01T07:16:51.733Z,27.50
2022-09-01T07:19:56.174Z,27.80
2022-09-01T07:23:06.361Z,28.00
2022-09-01T07:26:10.258Z,27.80
2022-09-01T07:29:13.333Z,28.40
2022-09-01T07:36:25.720Z,29.50
2022-09-01T07:45:59.761Z,30.70
2022-09-01T07:49:29.526Z,31.00
2022-09-01T07:52:25.742Z,31.20
2022-09-01T07:55:29.093Z,31.90
2022-09-01T07:58:33.458Z,31.60
2022-09-01T08:01:36.106Z,32.20
2022-09-01T08:04:40.116Z,32.70
2022-09-01T08:07:54.833Z,32.80
2022-09-01T08:11:04.899Z,33.30
2022-09-01T08:14:07.431Z,33.90
2022-09-01T08:17:18.069Z,34.00
2022-09-01T08:20:35.232Z,34.50
2022-09-01T08:23:38.040Z,34.10
2022-09-01T08:26:40.430Z,33.70
2022-09-01T08:29:42.562Z,34.60
2022-09-01T08:32:44.835Z,34.90
2022-09-01T08:35:49.412Z,35.60
2022-09-01T08:38:52.244Z,36.40
2022-09-01T08:42:23.897Z,36.60
2022-09-01T08:45:43.588Z,36.70
2022-09-01T08:52:28.131Z,37.30
2022-09-01T08:55:40.810Z,36.40
2022-09-01T08:58:43.079Z,36.10
2022-09-01T09:02:20.014Z,35.60
2022-09-01T09:05:36.203Z,35.30
2022-09-01T09:08:53.410Z,35.90
2022-09-01T09:12:29.237Z,37.60
2022-09-01T09:15:44.817Z,37.70
2022-09-01T09:18:57.919Z,38.60
2022-09-01T09:22:01.210Z,38.10
2022-09-01T09:25:08.310Z,38.40
2022-09-01T09:28:10.728Z,39.10
2022-09-01T09:31:30.358Z,40.00
2022-09-01T09:34:39.892Z,40.20
2022-09-01T09:37:42.079Z,39.00
2022-09-01T09:44:31.460Z,40.10
2022-09-01T09:47:45.478Z,38.20
2022-09-01T09:50:47.597Z,38.10
2022-09-01T09:53:50.337Z,38.80
2022-09-01T09:57:16.419Z,39.50
2022-09-01T10:00:34.146Z,39.20
2022-09-01T10:03:46.159Z,39.50
2022-09-01T10:06:48.237Z,39.80
2022-09-01T10:09:51.293Z,39.70
2022-09-01T10:12:54.557Z,39.20
2022-09-01T10:16:00.340Z,39.10
2022-09-01T10:19:16.214Z,39.70
2022-09-01T10:22:19.116Z,40.10
2022-09-01T10:25:22.627Z,40.50
2022-09-01T10:28:25.911Z,40.20
2022-09-01T10:31:32.355Z,40.20
2022-09-01T10:34:41.822Z,40.00
2022-09-01T10:37:44.177Z,40.00
2022-09-01T10:41:07.717Z,39.90
2022-09-01T10:44:19.908Z,40.00
2022-09-01T10:47:30.294Z,40.00
2022-09-01T10:50:36.685Z,39.30
2022-09-01T10:53:42.769Z,38.90
2022-09-01T10:56:51.730Z,39.40
2022-09-01T10:59:56.825Z,40.10
2022-09-01T11:03:31.702Z,40.30
2022-09-01T11:07:29.693Z,39.30
2022-09-01T11:10:32.827Z,38.80
2022-09-01T11:13:49.717Z,39.40
2022-09-01T11:17:31.072Z,39.90
2022-09-01T11:20:36.702Z,39.80
2022-09-01T11:23:39.376Z,39.40
2022-09-01T11:26:49.530Z,39.50
2022-09-01T11:29:58.976Z,39.40
2022-09-01T11:33:12.855Z,39.10
2022-09-01T11:36:20.161Z,39.00
2022-09-01T11:39:35.908Z,38.30
2022-09-01T11:42:46.740Z,37.20
2022-09-01T11:45:57.863Z,35.60
2022-09-01T11:49:21.988Z,34.80
2022-09-01T11:52:27.924Z,34.40
2022-09-01T11:55:34.918Z,34.10
2022-09-01T11:58:40.194Z,33.70
2022-09-01T12:01:43.514Z,33.40
2022-09-01T12:04:46.478Z,33.10
2022-09-01T12:07:57.175Z,33.00
2022-09-01T12:11:04.950Z,32.60
2022-09-01T12:14:11.768Z,32.20
2022-09-01T12:17:21.262Z,31.80
2022-09-01T12:20:28.698Z,31.60
2022-09-01T12:23:33.554Z,31.70
2022-09-01T12:26:35.809Z,31.70
2022-09-01T12:29:38.708Z,31.60
2022-09-01T12:32:41.066Z,31.70
2022-09-01T12:35:43.985Z,31.80
2022-09-01T12:38:46.183Z,31.80
2022-09-01T12:42:04.944Z,31.90
2022-09-01T12:45:10.298Z,31.90
2022-09-01T12:48:44.879Z,31.90
2022-09-01T12:51:51.249Z,31.70
2022-09-01T12:55:02.499Z,31.80
2022-09-01T12:58:11.883Z,31.80
2022-09-01T13:01:27.602Z,31.70
2022-09-01T13:04:33.113Z,31.60
2022-09-01T13:07:35.471Z,31.60
2022-09-01T13:10:47.129Z,31.40
2022-09-01T13:13:49.238Z,31.40
2022-09-01T13:16:51.426Z,31.40
2022-09-01T13:19:53.551Z,31.30
2022-09-01T13:22:55.923Z,31.10
2022-09-01T13:26:01.459Z,31.00
2022-09-01T13:29:04.156Z,31.10
2022-09-01T13:32:22.946Z,31.30
2022-09-01T13:35:26.430Z,31.20
2022-09-01T13:38:28.992Z,31.30
2022-09-01T13:41:31.915Z,31.30
2022-09-01T13:44:35.402Z,31.10
2022-09-01T13:48:15.271Z,30.70
2022-09-01T13:51:17.416Z,30.70
2022-09-01T13:54:21.507Z,30.50
2022-09-01T13:57:23.703Z,30.60
2022-09-01T14:00:32.388Z,30.60
2022-09-01T14:03:37.866Z,30.60
2022-09-01T14:06:41.334Z,30.50
2022-09-01T14:09:43.464Z,30.60
2022-09-01T14:12:46.798Z,30.60
2022-09-01T14:15:49.420Z,30.60
2022-09-01T14:18:51.557Z,30.50
2022-09-01T14:21:53.735Z,30.30
2022-09-01T14:24:55.848Z,30.10
2022-09-01T14:27:58.241Z,30.10
2022-09-01T14:34:01.331Z,30.20
2022-09-01T14:37:04.297Z,30.20
2022-09-01T14:40:08.580Z,29.80
2022-09-01T14:43:14.501Z,29.80
2022-09-01T14:46:18.498Z,29.90
2022-09-01T14:49:22.543Z,29.90
2022-09-01T14:52:24.958Z,29.80
2022-09-01T14:55:29.400Z,29.70
2022-09-01T14:58:31.490Z,29.60
2022-09-01T15:01:35.254Z,29.50
2022-09-01T15:04:37.992Z,29.60
2022-09-01T15:07:41.051Z,29.60
2022-09-01T15:10:43.183Z,29.60
2022-09-01T15:13:46.293Z,29.40
2022-09-01T15:16:48.495Z,29.40
2022-09-01T15:19:50.624Z,29.40
2022-09-01T15:22:53.392Z,29.40
2022-09-01T15:25:57.920Z,29.20
2022-09-01T15:29:02.103Z,29.40
2022-09-01T15:32:04.362Z,29.30
2022-09-01T15:35:06.871Z,29.30
2022-09-01T15:38:09.203Z,29.10
2022-09-01T15:41:17.338Z,29.10
2022-09-01T15:44:19.782Z,28.90
2022-09-01T15:47:22.348Z,28.80
2022-09-01T15:50:27.534Z,28.70
2022-09-01T15:53:29.961Z,28.60
2022-09-01T15:56:32.817Z,28.60
2022-09-01T15:59:35.431Z,28.50
2022-09-01T16:02:38.209Z,28.30
2022-09-01T16:05:41.352Z,28.30
2022-09-01T16:08:43.635Z,28.20
2022-09-01T16:11:45.702Z,28.10
2022-09-01T16:14:48.054Z,28.00
2022-09-01T16:18:05.938Z,28.10
2022-09-01T16:21:26.724Z,28.00
2022-09-01T16:24:30.282Z,27.90
2022-09-01T16:27:40.239Z,27.80
2022-09-01T16:30:44.848Z,27.90
2022-09-01T16:33:51.607Z,27.80
2022-09-01T16:37:10.308Z,27.70
2022-09-01T16:40:49.898Z,27.60
2022-09-01T16:44:06.247Z,27.50
2022-09-01T16:47:08.270Z,27.40
2022-09-01T16:50:26.461Z,27.60
2022-09-01T16:53:49.872Z,27.60
2022-09-01T16:57:07.220Z,27.70
2022-09-01T17:00:14.227Z,27.70
2022-09-01T17:03:19.825Z,27.60
2022-09-01T17:06:36.678Z,27.40
2022-09-01T17:09:43.603Z,27.30
2022-09-01T17:12:57.842Z,27.10
2022-09-01T17:16:07.995Z,27.10
2022-09-01T17:19:17.463Z,27.00
2022-09-01T17:22:21.698Z,26.90
2022-09-01T17:25:41.281Z,26.80
2022-09-01T17:29:00.476Z,26.80
2022-09-01T17:32:41.064Z,26.60
2022-09-01T17:36:42.289Z,26.40
2022-09-01T17:39:53.157Z,26.10
2022-09-01T17:43:27.497Z,26.30
2022-09-01T17:46:44.481Z,26.20
2022-09-01T17:50:21.391Z,26.00
2022-09-01T17:53:37.989Z,25.90
2022-09-01T17:57:12.616Z,25.90
2022-09-01T18:00:23.521Z,25.90
2022-09-01T18:03:46.736Z,25.80
2022-09-01T18:07:03.928Z,25.70
2022-09-01T18:10:11.988Z,25.60
2022-09-01T18:13:52.908Z,25.40
2022-09-01T18:17:19.082Z,25.30
2022-09-01T18:20:27.040Z,25.30
2022-09-01T18:23:32.642Z,25.30
2022-09-01T18:26:38.971Z,25.30
2022-09-01T18:29:42.205Z,25.10
2022-09-01T18:33:19.612Z,25.10
2022-09-01T18:36:36.928Z,25.00
2022-09-01T18:40:04.029Z,24.80
2022-09-01T18:43:24.973Z,24.70
2022-09-01T18:46:46.140Z,24.60
2022-09-01T18:50:28.248Z,24.50
2022-09-01T18:53:47.754Z,24.30
2022-09-01T18:57:00.928Z,24.30
2022-09-01T19:00:18.919Z,24.10
2022-09-01T19:03:43.366Z,24.10
2022-09-01T19:07:04.002Z,24.00
2022-09-01T19:10:13.091Z,23.90
2022-09-01T19:13:34.507Z,23.80
2022-09-01T19:16:56.245Z,23.80
2022-09-01T19:20:16.795Z,23.80
2022-09-01T19:23:27.173Z,23.70
2022-09-01T19:26:37.584Z,23.60
2022-09-01T19:29:53.800Z,23.50
2022-09-01T19:32:59.682Z,23.50
2022-09-01T19:36:05.363Z,23.50
2022-09-01T19:39:14.754Z,23.50
2022-09-01T19:42:45.659Z,23.50
2022-09-01T19:46:04.268Z,23.40
2022-09-01T19:49:30.021Z,23.40
2022-09-01T19:52:40.189Z,23.50
2022-09-01T19:55:56.393Z,23.50
2022-09-01T19:59:01.473Z,23.50
2022-09-01T20:02:11.719Z,23.50
2022-09-01T20:05:25.321Z,23.50
2022-09-01T20:08:37.899Z,23.40
2022-09-01T20:11:50.897Z,23.30
2022-09-01T20:14:53.319Z,23.20
2022-09-01T20:18:00.249Z,23.10
2022-09-01T20:21:18.902Z,23.10
2022-09-01T20:24:34.743Z,23.20
2022-09-01T20:28:05.524Z,23.20
2022-09-01T20:31:17.225Z,23.10
2022-09-01T20:34:44.764Z,23.10
2022-09-01T20:37:52.227Z,23.10
2022-09-01T20:40:56.658Z,23.20
2022-09-01T20:44:01.998Z,23.20
2022-09-01T20:47:07.219Z,23.20
2022-09-01T20:50:14.145Z,23.20
2022-09-01T20:53:31.349Z,23.10
2022-09-01T20:57:14.857Z,23.00
2022-09-01T21:00:21.952Z,22.80
2022-09-01T21:03:41.838Z,22.80
2022-09-01T21:07:12.088Z,22.80
2022-09-01T21:10:24.870Z,22.80
2022-09-01T21:13:39.535Z,22.60
2022-09-01T21:17:14.884Z,22.60
2022-09-01T21:20:32.944Z,22.50
2022-09-01T21:23:35.160Z,22.40
2022-09-01T21:26:38.457Z,22.40
2022-09-01T21:29:45.148Z,22.40
2022-09-01T21:32:47.331Z,22.40
2022-09-01T21:35:50.938Z,22.50
2022-09-01T21:38:53.161Z,22.50
2022-09-01T21:41:56.481Z,22.50
2022-09-01T21:45:00.249Z,22.50
2022-09-01T21:48:02.997Z,22.60
2022-09-01T21:51:05.535Z,22.60
2022-09-01T21:54:08.498Z,22.60
2022-09-01T21:57:10.706Z,22.60
2022-09-01T22:00:17.656Z,22.60
2022-09-01T22:03:20.101Z,22.60
2022-09-01T22:06:23.477Z,22.60
2022-09-01T22:09:25.979Z,22.50
2022-09-01T22:12:28.141Z,22.50
2022-09-01T22:15:30.663Z,22.40
2022-09-01T22:18:32.947Z,22.50
2022-09-01T22:21:36.673Z,22.50
2022-09-01T22:24:39.084Z,22.50
2022-09-01T22:27:41.504Z,22.50
2022-09-01T22:30:47.458Z,22.50
2022-09-01T22:33:49.922Z,22.50
2022-09-01T22:36:52.202Z,22.50
2022-09-01T22:39:54.276Z,22.30
2022-09-01T22:42:56.435Z,22.30
2022-09-01T22:45:59.633Z,22.30
2022-09-01T22:49:04.276Z,22.30
2022-09-01T22:52:06.398Z,22.30
2022-09-01T22:55:09.583Z,22.30
2022-09-01T22:58:12.601Z,22.30
2022-09-01T23:01:17.745Z,22.30
2022-09-01T23:04:19.967Z,22.30
2022-09-01T23:07:22.040Z,22.40
2022-09-01T23:10:24.729Z,22.30
2022-09-01T23:13:28.474Z,22.30
2022-09-01T23:16:31.621Z,22.20
2022-09-01T23:19:33.773Z,22.10
2022-09-01T23:22:35.820Z,22.10
2022-09-01T23:25:37.869Z,22.10
2022-09-01T23:28:41.135Z,22.10
2022-09-01T23:31:44.034Z,22.20
2022-09-01T23:34:46.220Z,22.20
2022-09-01T23:37:48.371Z,22.20
2022-09-01T23:40:54.247Z,22.20
2022-09-01T23:43:58.032Z,22.20
2022-09-01T23:47:00.098Z,22.20
2022-09-01T23:50:02.865Z,22.30
2022-09-01T23:53:04.924Z,22.30
2022-09-01T23:56:19.506Z,22.20
2022-09-01T23:59:24.310Z,22.30
